Time;durP1;ratioP1;P1;durP2;ratioP2;P2;SDS_P1;SDS_P2;PMS_P1;PMS_P2;Temp;Humidity;BMP_temperature;BMP_pressure;BME280_temperature;BME280_humidity;BME280_pressure;Samples;Min_cycle;Max_cycle;Signal;HPM_P1;HPM_P2
2021/11/01 00:07:16;;;;;;;1.77;0.95;;;10.60;99.90;;;;;;20559020;28;20416;-43
2021/11/01 00:17:17;;;;;;;15.32;1.15;;;10.50;99.90;;;;;;20554436;28;20054;-43
2021/11/01 00:27:19;;;;;;;8.02;1.80;;;10.50;99.90;;;;;;20540079;28;20509;-44
2021/11/01 00:37:20;;;;;;;2.50;0.45;;;10.30;99.90;;;;;;20557117;28;20513;-43
2021/11/01 00:47:21;;;;;;;3.08;0.47;;;10.20;99.90;;;;;;20543811;28;20069;-43
2021/11/01 00:57:23;;;;;;;1.67;0.40;;;10.30;99.90;;;;;;20557213;28;20051;-43
2021/11/01 01:07:26;;;;;;;3.90;0.75;;;10.30;99.90;;;;;;20540096;28;20500;-43
2021/11/01 01:17:28;;;;;;;3.10;1.38;;;10.20;99.90;;;;;;20545342;28;20412;-43
2021/11/01 01:27:29;;;;;;;2.53;0.70;;;10.10;99.90;;;;;;20534696;28;20050;-43
2021/11/01 01:37:31;;;;;;;8.65;0.70;;;10.00;99.90;;;;;;20547414;28;20073;-43
2021/11/01 01:47:33;;;;;;;1.17;0.25;;;10.00;99.90;;;;;;20542390;28;20066;-43
2021/11/01 01:57:34;;;;;;;5.05;0.77;;;10.00;99.90;;;;;;20545393;28;20049;-43
2021/11/01 02:07:59;;;;;;;0.90;0.30;;;9.90;99.90;;;;;;20539625;28;20045;-43
2021/11/01 02:18:04;;;;;;;3.15;0.73;;;9.80;99.90;;;;;;20539682;28;20051;-43
2021/11/01 02:28:06;;;;;;;3.00;0.28;;;9.90;99.90;;;;;;20546626;28;20054;-43
2021/11/01 02:38:11;;;;;;;1.95;0.65;;;9.80;99.90;;;;;;20549176;28;20061;-43
2021/11/01 02:48:12;;;;;;;0.80;0.30;;;9.70;99.90;;;;;;20539346;28;20055;-43
2021/11/01 02:58:14;;;;;;;1.00;0.32;;;9.70;99.90;;;;;;20553693;28;20047;-43
2021/11/01 03:08:15;;;;;;;1.35;0.30;;;9.80;99.90;;;;;;20539581;28;20058;-43
2021/11/01 03:18:16;;;;;;;9.80;0.60;;;9.70;99.90;;;;;;20550356;28;20524;-43
2021/11/01 03:28:18;;;;;;;0.65;0.30;;;9.70;99.90;;;;;;20557185;28;20042;-43
2021/11/01 03:38:21;;;;;;;3.03;1.20;;;9.60;99.90;;;;;;20557514;28;20587;-43
2021/11/01 03:48:23;;;;;;;2.70;0.73;;;9.60;99.90;;;;;;20549763;28;20608;-43
2021/11/01 03:58:25;;;;;;;7.30;0.70;;;9.50;99.90;;;;;;20546762;28;20066;-43
2021/11/01 04:08:27;;;;;;;2.53;0.57;;;9.40;99.90;;;;;;20545510;28;20047;-43
2021/11/01 04:18:36;;;;;;;1.35;0.30;;;9.50;99.90;;;;;;20563433;28;20042;-43
2021/11/01 04:28:38;;;;;;;4.70;0.73;;;9.40;99.90;;;;;;20540892;28;20062;-43
2021/11/01 04:38:55;;;;;;;2.53;0.60;;;9.40;99.90;;;;;;20556306;28;20046;-43
2021/11/01 04:59:19;;;;;;;3.72;0.70;;;9.40;99.90;;;;;;20560682;28;20057;-43
2021/11/01 05:09:27;;;;;;;4.18;0.50;;;9.40;99.90;;;;;;20509555;28;20058;-43
2021/11/01 05:19:32;;;;;;;3.85;1.02;;;9.40;99.90;;;;;;20539888;28;20054;-43
2021/11/01 05:29:33;;;;;;;2.42;1.02;;;9.30;99.90;;;;;;20538431;28;20058;-43
2021/11/01 05:39:35;;;;;;;2.30;0.45;;;9.40;99.90;;;;;;20532941;28;20058;-43
2021/11/01 05:49:38;;;;;;;5.28;0.60;;;9.30;99.90;;;;;;20547758;28;20057;-43
2021/11/01 06:00:01;;;;;;;2.25;0.45;;;9.30;99.90;;;;;;20554875;28;20039;-43
2021/11/01 06:10:17;;;;;;;7.32;0.88;;;9.30;99.90;;;;;;20553441;28;20035;-43
2021/11/01 06:20:18;;;;;;;7.85;0.52;;;9.40;99.90;;;;;;20550447;28;20078;-43
2021/11/01 06:30:28;;;;;;;8.38;0.88;;;9.40;99.90;;;;;;20546602;28;20071;-43
2021/11/01 06:51:02;;;;;;;5.95;0.60;;;9.40;99.90;;;;;;20525081;28;20038;-43
2021/11/01 08:24:35;;;;;;;6.60;1.20;;;10.50;99.90;;;;;;20537244;28;20057;-44
2021/11/01 09:46:13;;;;;;;2.10;0.60;;;11.20;99.90;;;;;;20523949;28;20038;-43
2021/11/01 09:56:20;;;;;;;3.17;0.55;;;11.40;99.90;;;;;;20527003;28;20050;-43
2021/11/01 10:06:23;;;;;;;1.55;0.47;;;11.50;99.90;;;;;;20555475;28;23073;-43
2021/11/01 10:27:07;;;;;;;0.90;0.43;;;11.80;99.90;;;;;;20528430;28;20034;-43
2021/11/01 10:37:12;;;;;;;1.42;0.65;;;12.10;99.90;;;;;;20530311;28;20058;-43
2021/11/01 11:49:11;;;;;;;3.47;0.60;;;14.80;99.90;;;;;;20551669;28;20126;-43
2021/11/01 11:59:13;;;;;;;4.90;0.70;;;15.10;99.90;;;;;;20549589;28;20058;-44
2021/11/01 12:09:21;;;;;;;1.17;0.57;;;15.30;99.90;;;;;;20545805;28;20081;-44
2021/11/01 12:19:24;;;;;;;1.67;0.40;;;15.60;99.90;;;;;;20548260;28;20066;-43
2021/11/01 12:29:25;;;;;;;2.25;0.50;;;15.90;99.90;;;;;;20529497;28;20043;-44
2021/11/01 12:39:34;;;;;;;1.30;0.40;;;16.30;99.90;;;;;;20542631;28;20054;-44
2021/11/01 12:59:49;;;;;;;1.30;0.20;;;15.90;99.90;;;;;;20561130;28;20038;-44
2021/11/01 13:10:10;;;;;;;0.88;0.40;;;16.20;99.90;;;;;;20539809;28;20047;-43
2021/11/01 13:20:11;;;;;;;4.07;0.50;;;16.00;99.90;;;;;;20533612;28;20505;-44
2021/11/01 13:40:43;;;;;;;1.45;0.47;;;14.30;99.90;;;;;;20539837;28;20062;-44
2021/11/01 13:50:44;;;;;;;1.63;0.52;;;13.90;99.90;;;;;;20553271;28;20657;-44
2021/11/01 15:13:07;;;;;;;2.58;1.08;;;12.70;99.90;;;;;;20553308;28;20067;-43
2021/11/01 15:23:14;;;;;;;3.13;1.10;;;12.60;99.90;;;;;;20560667;28;20181;-43
2021/11/01 16:24:58;;;;;;;0.60;0.32;;;10.10;99.90;;;;;;20551847;28;20038;-43
2021/11/01 16:35:06;;;;;;;2.45;0.60;;;10.20;99.90;;;;;;20561097;28;20050;-43
2021/11/01 16:45:16;;;;;;;0.63;0.43;;;10.00;99.90;;;;;;20559727;28;20041;-43
2021/11/01 16:55:23;;;;;;;0.20;0.20;;;9.90;99.90;;;;;;20547738;28;20065;-43
2021/11/01 17:05:38;;;;;;;0.53;0.10;;;9.80;99.90;;;;;;20534031;28;20051;-43
2021/11/01 17:26:20;;;;;;;0.65;0.17;;;9.70;99.90;;;;;;20557846;28;20392;-43
2021/11/01 17:36:48;;;;;;;2.08;0.10;;;9.60;99.90;;;;;;20550988;28;20059;-43
2021/11/01 18:39:13;;;;;;;1.90;0.80;;;9.00;99.90;;;;;;20553314;28;20061;-43
2021/11/01 18:59:37;;;;;;;2.05;0.65;;;9.00;99.90;;;;;;20549199;28;20038;-43
2021/11/01 21:34:16;;;;;;;3.75;1.40;;;8.20;99.90;;;;;;20535409;28;20069;-43
2021/11/01 21:44:17;;;;;;;4.55;1.60;;;8.10;99.90;;;;;;20536388;28;20536;-43
2021/11/01 21:54:30;;;;;;;2.83;1.50;;;8.10;99.90;;;;;;20543204;28;20058;-43
2021/11/01 22:25:16;;;;;;;3.20;1.05;;;7.90;99.90;;;;;;20531063;28;20062;-43
2021/11/01 23:36:46;;;;;;;3.78;1.73;;;7.50;99.90;;;;;;20536245;28;20053;-43
2021/11/01 23:46:49;;;;;;;5.30;1.85;;;7.40;99.90;;;;;;20550298;28;20035;-43
2021/11/01 23:56:51;;;;;;;3.80;1.63;;;7.30;99.90;;;;;;20553449;28;20043;-43
